Time;durP1;ratioP1;P1;durP2;ratioP2;P2;SDS_P1;SDS_P2;PMS_P1;PMS_P2;Temp;Humidity;BMP_temperature;BMP_pressure;BME280_temperature;BME280_humidity;BME280_pressure;Samples;Min_cycle;Max_cycle;Signal;HPM_P1;HPM_P2
2022/03/22 00:00:32;;;;;;;44.03;29.50;;;8.80;99.90;;;;;;4996577;28;20049;-72
2022/03/22 00:02:58;;;;;;;37.15;30.40;;;8.80;99.90;;;;;;5013113;28;20048;-72
2022/03/22 00:05:24;;;;;;;35.78;29.20;;;8.80;99.90;;;;;;5013083;28;20393;-72
2022/03/22 00:07:50;;;;;;;35.90;27.70;;;8.80;99.90;;;;;;5012674;28;20490;-72
2022/03/22 00:10:15;;;;;;;35.58;28.92;;;8.70;99.90;;;;;;5012703;28;20041;-71
2022/03/22 00:12:42;;;;;;;40.85;28.52;;;8.70;99.90;;;;;;5012725;28;20048;-71
2022/03/22 00:15:09;;;;;;;38.30;28.70;;;8.70;99.90;;;;;;5012928;28;20064;-71
2022/03/22 00:17:36;;;;;;;34.78;28.15;;;8.70;99.90;;;;;;5012835;28;20068;-72
2022/03/22 00:20:03;;;;;;;38.80;28.85;;;8.70;99.90;;;;;;5012595;28;20049;-71
2022/03/22 00:22:29;;;;;;;39.50;29.05;;;8.70;99.90;;;;;;5012503;28;20083;-71
2022/03/22 00:24:55;;;;;;;35.45;28.80;;;8.70;99.90;;;;;;5012485;28;20034;-72
2022/03/22 00:27:21;;;;;;;35.85;28.15;;;8.70;99.90;;;;;;5012399;28;20034;-72
2022/03/22 00:29:46;;;;;;;36.25;28.40;;;8.70;99.90;;;;;;5012432;28;20046;-71
2022/03/22 00:32:12;;;;;;;37.22;29.30;;;8.60;99.90;;;;;;5012701;28;20045;-71
2022/03/22 00:34:44;;;;;;;35.88;28.02;;;8.60;99.90;;;;;;5012650;28;20509;-71
2022/03/22 00:37:13;;;;;;;39.38;29.27;;;8.60;99.90;;;;;;5012292;28;20557;-72
2022/03/22 00:39:39;;;;;;;36.50;28.92;;;8.60;99.90;;;;;;5012226;28;20049;-71
2022/03/22 00:42:05;;;;;;;37.53;28.38;;;8.60;99.90;;;;;;5012269;28;20088;-71
2022/03/22 00:44:30;;;;;;;37.10;28.55;;;8.60;99.90;;;;;;5011730;28;20045;-71
2022/03/22 00:46:56;;;;;;;34.80;29.52;;;8.60;99.90;;;;;;5012229;28;20044;-72
2022/03/22 00:49:21;;;;;;;38.00;27.63;;;8.60;99.90;;;;;;5012201;28;20046;-71
2022/03/22 00:51:47;;;;;;;34.03;28.17;;;8.60;99.90;;;;;;5012136;28;20038;-71
2022/03/22 00:54:13;;;;;;;39.85;27.92;;;8.60;99.90;;;;;;5012124;28;20068;-71
2022/03/22 00:56:39;;;;;;;36.47;28.38;;;8.60;99.90;;;;;;5012272;28;20054;-72
2022/03/22 01:01:49;;;;;;;34.58;28.25;;;8.50;99.90;;;;;;5012086;28;20046;-71
2022/03/22 01:04:14;;;;;;;39.83;29.38;;;8.50;99.90;;;;;;5012024;28;20038;-71
2022/03/22 01:06:40;;;;;;;36.97;28.63;;;8.50;99.90;;;;;;5011959;28;20121;-72
2022/03/22 01:09:05;;;;;;;33.45;28.17;;;8.50;99.90;;;;;;5012012;28;20410;-72
2022/03/22 01:11:31;;;;;;;36.50;28.70;;;8.50;99.90;;;;;;4995596;28;20041;-72
2022/03/22 01:13:56;;;;;;;36.33;29.02;;;8.60;99.90;;;;;;5011938;28;20034;-71
2022/03/22 01:16:22;;;;;;;33.22;28.50;;;8.60;99.90;;;;;;5011825;28;20045;-71
2022/03/22 01:18:47;;;;;;;32.88;27.55;;;8.60;99.90;;;;;;4995525;28;20096;-71
2022/03/22 01:21:13;;;;;;;34.10;26.50;;;8.60;99.90;;;;;;4995586;28;20049;-71
2022/03/22 01:23:38;;;;;;;37.92;27.80;;;8.60;99.90;;;;;;5011842;28;20072;-72
2022/03/22 01:26:06;;;;;;;36.88;28.33;;;8.60;99.90;;;;;;5011819;28;20049;-72
2022/03/22 01:28:31;;;;;;;33.78;27.08;;;8.60;99.90;;;;;;5012112;28;20092;-71
2022/03/22 01:30:57;;;;;;;31.17;24.58;;;8.60;99.90;;;;;;5011810;28;20510;-71
2022/03/22 01:33:23;;;;;;;30.55;24.70;;;8.70;99.90;;;;;;5011795;28;20046;-71
2022/03/22 01:35:48;;;;;;;32.58;26.83;;;8.60;99.90;;;;;;5011748;28;20042;-71
2022/03/22 01:38:14;;;;;;;34.65;26.30;;;8.50;99.90;;;;;;5011584;28;20038;-71
2022/03/22 01:40:40;;;;;;;31.60;25.95;;;8.50;99.90;;;;;;5011670;28;20030;-71
2022/03/22 01:43:06;;;;;;;33.55;25.77;;;8.50;99.90;;;;;;5011732;28;20038;-71
2022/03/22 01:45:34;;;;;;;35.10;26.55;;;8.50;99.90;;;;;;5011900;28;20100;-71
2022/03/22 01:48:02;;;;;;;34.78;26.33;;;8.50;99.90;;;;;;5011776;28;20068;-71
2022/03/22 01:50:29;;;;;;;34.58;26.33;;;8.50;99.90;;;;;;4995547;28;20498;-71
2022/03/22 01:52:57;;;;;;;32.17;25.08;;;8.40;99.90;;;;;;5011651;28;20041;-71
2022/03/22 01:55:25;;;;;;;31.27;24.33;;;8.40;99.90;;;;;;5011822;28;20498;-72
2022/03/22 01:57:51;;;;;;;28.38;24.98;;;8.30;99.90;;;;;;5015335;28;20037;-71
2022/03/22 02:00:19;;;;;;;31.73;27.65;;;8.30;99.90;;;;;;5015159;28;20080;-71
2022/03/22 02:05:56;;;;;;;33.28;25.73;;;8.40;99.90;;;;;;5015273;28;20050;-71
2022/03/22 02:08:27;;;;;;;28.40;24.23;;;8.40;99.90;;;;;;5015054;28;20045;-71
2022/03/22 02:10:54;;;;;;;33.47;24.92;;;8.30;99.90;;;;;;5015027;28;20052;-71
2022/03/22 02:13:20;;;;;;;30.35;25.05;;;8.10;99.90;;;;;;5014968;28;20073;-71
2022/03/22 02:15:49;;;;;;;31.83;25.80;;;8.10;99.90;;;;;;5014883;28;20037;-71
2022/03/22 02:18:16;;;;;;;32.10;25.77;;;8.00;99.90;;;;;;5014703;28;20430;-71
2022/03/22 02:20:42;;;;;;;32.20;27.42;;;8.00;99.90;;;;;;5014785;28;20042;-71
2022/03/22 02:23:28;;;;;;;32.38;25.42;;;7.90;99.90;;;;;;4998462;28;20034;-71
2022/03/22 02:25:53;;;;;;;33.38;27.17;;;7.90;99.90;;;;;;4998558;28;20050;-72
2022/03/22 02:28:22;;;;;;;34.25;26.77;;;7.70;99.90;;;;;;5014646;28;20042;-71
2022/03/22 02:30:50;;;;;;;38.42;28.73;;;7.70;99.90;;;;;;5014575;28;20470;-71
2022/03/22 02:33:16;;;;;;;33.70;26.90;;;7.70;99.90;;;;;;5014558;28;20046;-71
2022/03/22 02:35:41;;;;;;;32.92;26.08;;;7.70;99.90;;;;;;5014741;28;20046;-71
2022/03/22 02:38:08;;;;;;;33.58;27.02;;;7.70;99.90;;;;;;5015058;28;20483;-72
2022/03/22 02:40:33;;;;;;;32.67;25.98;;;7.70;99.90;;;;;;5014653;28;20045;-73
2022/03/22 02:43:00;;;;;;;31.38;26.60;;;7.60;99.90;;;;;;5014395;28;20034;-73
2022/03/22 02:45:26;;;;;;;34.10;26.80;;;7.60;99.90;;;;;;5014335;28;20042;-73
2022/03/22 02:47:52;;;;;;;38.15;27.20;;;7.60;99.90;;;;;;5014080;28;20045;-73
2022/03/22 02:50:18;;;;;;;34.53;27.15;;;7.70;99.90;;;;;;5014204;28;20136;-73
2022/03/22 02:52:47;;;;;;;37.88;28.38;;;7.70;99.90;;;;;;5014224;28;20037;-73
2022/03/22 02:55:13;;;;;;;36.28;27.73;;;7.80;99.90;;;;;;4997770;28;20040;-73
2022/03/22 02:57:40;;;;;;;35.47;28.17;;;7.90;99.90;;;;;;5014217;28;20049;-73
2022/03/22 03:00:10;;;;;;;35.92;27.67;;;7.90;99.90;;;;;;5013994;28;20084;-73
2022/03/22 03:02:49;;;;;;;34.25;28.70;;;8.10;99.90;;;;;;5014317;28;20042;-73
2022/03/22 03:05:15;;;;;;;39.70;29.23;;;8.10;99.90;;;;;;5013946;28;20034;-73
2022/03/22 03:07:41;;;;;;;39.28;28.20;;;8.10;99.90;;;;;;5013410;28;20046;-73
2022/03/22 03:10:07;;;;;;;38.10;27.67;;;8.20;99.90;;;;;;5013796;28;20054;-73
2022/03/22 03:12:33;;;;;;;37.00;28.13;;;8.20;99.90;;;;;;5013818;28;20046;-73
2022/03/22 03:14:59;;;;;;;36.28;28.70;;;8.20;99.90;;;;;;5013773;28;20502;-73
2022/03/22 03:17:25;;;;;;;35.20;28.67;;;8.30;99.90;;;;;;5013932;28;20050;-73
2022/03/22 03:19:50;;;;;;;36.08;28.77;;;8.40;99.90;;;;;;5013554;28;20038;-73
2022/03/22 03:22:16;;;;;;;35.40;28.27;;;8.40;99.90;;;;;;4997810;28;20045;-73
2022/03/22 03:24:42;;;;;;;43.08;28.67;;;8.40;99.90;;;;;;5013576;28;20521;-73
2022/03/22 03:27:07;;;;;;;35.83;29.20;;;8.40;99.90;;;;;;5013484;28;20037;-73
2022/03/22 03:29:33;;;;;;;34.10;27.02;;;8.40;99.90;;;;;;5013734;28;20085;-73
2022/03/22 03:31:58;;;;;;;34.10;28.13;;;8.50;99.90;;;;;;5013706;28;20442;-73
2022/03/22 03:34:24;;;;;;;32.42;28.17;;;8.40;99.90;;;;;;4997325;28;20394;-73
2022/03/22 03:36:50;;;;;;;36.40;28.55;;;8.50;99.90;;;;;;5013562;28;20490;-73
2022/03/22 03:39:16;;;;;;;39.42;28.70;;;8.40;99.90;;;;;;4997024;28;20406;-73
2022/03/22 03:41:54;;;;;;;40.55;29.20;;;8.40;99.90;;;;;;5013252;28;20068;-73
2022/03/22 03:47:11;;;;;;;36.85;27.88;;;8.50;99.90;;;;;;5012994;28;20046;-73
2022/03/22 03:49:44;;;;;;;35.15;28.40;;;8.40;99.90;;;;;;5013397;28;20046;-73
2022/03/22 03:52:15;;;;;;;35.08;29.58;;;8.50;99.90;;;;;;5013083;28;20042;-73
2022/03/22 03:54:42;;;;;;;37.90;29.20;;;8.50;99.90;;;;;;5013074;28;20057;-73
2022/03/22 03:57:08;;;;;;;36.10;28.73;;;8.50;99.90;;;;;;5012922;28;20041;-73
2022/03/22 03:59:34;;;;;;;37.35;29.15;;;8.50;99.90;;;;;;5012869;28;20514;-73
2022/03/22 04:02:01;;;;;;;37.45;29.70;;;8.50;99.90;;;;;;5013182;28;20050;-73
2022/03/22 04:04:26;;;;;;;37.22;28.80;;;8.40;99.90;;;;;;5012881;28;20045;-73
2022/03/22 04:06:52;;;;;;;35.03;28.90;;;8.40;99.90;;;;;;5013016;28;20049;-73
2022/03/22 04:09:17;;;;;;;39.50;28.65;;;8.40;99.90;;;;;;5012796;28;20050;-73
2022/03/22 04:11:44;;;;;;;35.70;29.60;;;8.40;99.90;;;;;;5012775;28;20041;-73
2022/03/22 04:14:10;;;;;;;34.60;29.60;;;8.30;99.90;;;;;;5012989;28;20529;-73
2022/03/22 04:16:39;;;;;;;38.60;30.40;;;8.30;99.90;;;;;;5012633;28;20041;-73
2022/03/22 04:19:05;;;;;;;35.05;28.48;;;8.30;99.90;;;;;;5011784;28;20038;-73
2022/03/22 04:21:31;;;;;;;38.58;29.83;;;8.20;99.90;;;;;;5012850;28;20033;-73
2022/03/22 04:23:59;;;;;;;38.15;30.42;;;8.20;99.90;;;;;;5012577;28;20042;-73
2022/03/22 04:26:25;;;;;;;42.00;29.55;;;8.20;99.90;;;;;;5012471;28;20045;-73
2022/03/22 04:34:19;;;;;;;36.83;30.00;;;8.10;99.90;;;;;;5012403;28;20045;-73
2022/03/22 04:36:55;;;;;;;33.80;28.90;;;8.00;99.90;;;;;;5012305;28;20045;-73
2022/03/22 04:39:29;;;;;;;37.88;29.42;;;8.00;99.90;;;;;;5012341;28;20092;-73
2022/03/22 04:41:56;;;;;;;36.83;29.13;;;8.00;99.90;;;;;;5012298;28;20411;-73
2022/03/22 04:44:23;;;;;;;38.08;30.85;;;7.90;99.90;;;;;;5012326;28;20045;-73
2022/03/22 04:46:48;;;;;;;41.38;30.80;;;7.90;99.90;;;;;;5012293;28;20034;-73
2022/03/22 04:49:14;;;;;;;37.45;29.58;;;7.80;99.90;;;;;;5012525;28;20483;-73
2022/03/22 04:57:08;;;;;;;39.15;29.42;;;7.80;99.90;;;;;;5012038;28;20053;-73
2022/03/22 04:59:34;;;;;;;40.63;30.33;;;7.80;99.90;;;;;;5012094;28;20042;-73
2022/03/22 05:02:00;;;;;;;36.92;27.98;;;7.80;99.90;;;;;;5012096;28;20034;-73
2022/03/22 05:04:25;;;;;;;39.78;30.40;;;7.80;99.90;;;;;;5012071;28;20140;-73
2022/03/22 05:06:52;;;;;;;40.03;31.17;;;7.80;99.90;;;;;;5012302;28;20040;-73
2022/03/22 05:09:18;;;;;;;35.85;29.75;;;7.80;99.90;;;;;;4995978;28;20049;-73
2022/03/22 05:11:44;;;;;;;34.75;28.60;;;7.80;99.90;;;;;;5012252;28;20049;-73
2022/03/22 05:14:09;;;;;;;40.20;29.83;;;7.80;99.90;;;;;;5011978;28;20557;-73
2022/03/22 05:16:35;;;;;;;37.67;28.92;;;7.90;99.90;;;;;;5011887;28;20417;-73
2022/03/22 05:19:03;;;;;;;37.03;29.48;;;7.90;99.90;;;;;;4995708;28;20064;-73
2022/03/22 05:21:30;;;;;;;42.13;30.98;;;7.90;99.90;;;;;;4995600;28;20041;-73
2022/03/22 05:23:55;;;;;;;39.65;30.25;;;7.90;99.90;;;;;;5012162;28;20033;-73
2022/03/22 05:26:21;;;;;;;39.72;30.50;;;7.90;99.90;;;;;;5011757;28;20169;-73
2022/03/22 05:28:47;;;;;;;41.17;30.30;;;7.90;99.90;;;;;;4995547;28;20168;-73
2022/03/22 05:31:16;;;;;;;39.10;30.90;;;7.90;99.90;;;;;;4998467;28;20041;-73
2022/03/22 05:33:42;;;;;;;37.70;30.02;;;7.90;99.90;;;;;;4999348;28;20092;-73
2022/03/22 05:36:09;;;;;;;37.40;28.88;;;7.80;99.90;;;;;;4999309;28;20045;-73
2022/03/22 05:38:36;;;;;;;35.55;30.27;;;7.80;99.90;;;;;;5015504;28;20057;-73
2022/03/22 05:41:06;;;;;;;38.65;29.98;;;7.80;99.90;;;;;;5015770;28;20513;-73
2022/03/22 05:43:31;;;;;;;41.72;30.23;;;7.80;99.90;;;;;;4999482;28;20405;-73
2022/03/22 05:45:57;;;;;;;37.28;31.15;;;7.80;99.90;;;;;;5015194;28;20529;-73
2022/03/22 05:48:23;;;;;;;43.03;31.05;;;7.80;99.90;;;;;;5015680;28;20045;-73
2022/03/22 05:50:50;;;;;;;38.08;30.52;;;7.80;99.90;;;;;;4999402;28;20057;-73
2022/03/22 05:53:16;;;;;;;37.97;28.85;;;7.80;99.90;;;;;;5015294;28;20053;-73
2022/03/22 05:55:42;;;;;;;44.65;30.83;;;7.80;99.90;;;;;;4999157;28;20038;-73
2022/03/22 05:58:08;;;;;;;38.72;30.52;;;7.80;99.90;;;;;;5015415;28;20398;-73
2022/03/22 06:00:35;;;;;;;35.80;29.40;;;7.80;99.90;;;;;;5015212;28;20038;-73
2022/03/22 06:03:01;;;;;;;34.25;27.88;;;7.80;99.90;;;;;;5015143;28;20030;-73
2022/03/22 06:05:28;;;;;;;38.17;29.38;;;7.90;99.90;;;;;;5015373;28;20034;-73
2022/03/22 06:07:55;;;;;;;39.65;29.35;;;7.90;99.90;;;;;;5015063;28;20049;-73
2022/03/22 06:10:21;;;;;;;37.42;29.38;;;7.90;99.90;;;;;;4998521;28;20062;-73
2022/03/22 06:12:46;;;;;;;40.78;29.17;;;8.00;99.90;;;;;;4998671;28;20044;-73
2022/03/22 06:15:15;;;;;;;38.35;29.40;;;8.00;99.90;;;;;;5015150;28;20096;-73
2022/03/22 06:17:46;;;;;;;39.45;29.38;;;8.00;99.90;;;;;;5015077;28;20099;-73
2022/03/22 06:20:11;;;;;;;38.38;29.55;;;8.00;99.90;;;;;;4998498;28;20049;-73
2022/03/22 06:22:37;;;;;;;38.53;28.15;;;8.00;99.90;;;;;;5014698;28;20037;-73
2022/03/22 06:25:03;;;;;;;38.58;28.30;;;8.00;99.90;;;;;;5014729;28;20042;-73
2022/03/22 06:27:29;;;;;;;37.25;28.52;;;8.00;99.90;;;;;;5014593;28;20034;-73
2022/03/22 06:29:54;;;;;;;36.08;29.15;;;8.00;99.90;;;;;;5014615;28;20045;-73
2022/03/22 06:32:20;;;;;;;37.15;29.05;;;8.00;99.90;;;;;;5014829;28;20038;-73
2022/03/22 06:34:47;;;;;;;36.65;29.48;;;8.10;99.90;;;;;;5014549;28;20569;-73
2022/03/22 06:37:13;;;;;;;38.53;29.35;;;8.10;99.90;;;;;;5015448;28;20049;-73
2022/03/22 06:39:39;;;;;;;35.95;28.63;;;8.10;99.90;;;;;;5014518;28;20402;-73
2022/03/22 06:42:05;;;;;;;42.40;30.27;;;8.20;99.90;;;;;;4997213;28;20491;-73
2022/03/22 06:44:31;;;;;;;39.85;30.52;;;8.20;99.90;;;;;;5014413;28;20042;-73
2022/03/22 06:46:56;;;;;;;37.97;29.02;;;8.20;99.90;;;;;;4997783;28;20092;-73
2022/03/22 06:49:23;;;;;;;40.83;29.30;;;8.30;99.90;;;;;;4998002;28;20045;-74
2022/03/22 06:51:49;;;;;;;37.30;29.23;;;8.30;99.90;;;;;;4997905;28;20053;-73
2022/03/22 06:54:15;;;;;;;40.30;30.42;;;8.40;99.90;;;;;;5014530;28;20038;-73
2022/03/22 06:56:40;;;;;;;39.63;29.52;;;8.40;99.90;;;;;;5014137;28;20506;-72
2022/03/22 06:59:06;;;;;;;37.90;28.35;;;8.40;99.90;;;;;;4997876;28;20434;-72
2022/03/22 07:01:31;;;;;;;38.28;29.27;;;8.50;99.90;;;;;;5014296;28;20494;-72
2022/03/22 07:03:57;;;;;;;39.22;29.23;;;8.50;99.90;;;;;;5014245;28;20395;-72
2022/03/22 07:06:23;;;;;;;38.50;29.40;;;8.60;99.90;;;;;;5014138;28;20065;-72
2022/03/22 07:08:49;;;;;;;40.25;29.40;;;8.60;99.90;;;;;;5013920;28;20045;-72
2022/03/22 07:13:58;;;;;;;39.92;29.50;;;8.70;99.90;;;;;;5013763;28;20046;-73
2022/03/22 07:16:27;;;;;;;35.20;27.55;;;8.70;99.90;;;;;;5013682;28;20033;-73
2022/03/22 07:18:53;;;;;;;34.28;26.70;;;8.80;99.90;;;;;;5013615;28;20108;-73
2022/03/22 07:21:19;;;;;;;39.58;27.40;;;8.90;99.90;;;;;;4997376;28;20030;-73
2022/03/22 07:23:45;;;;;;;36.28;28.20;;;9.00;99.90;;;;;;5013616;28;20395;-73
2022/03/22 07:26:10;;;;;;;34.67;25.92;;;9.10;99.90;;;;;;4997205;28;20041;-73
2022/03/22 07:28:36;;;;;;;35.38;27.90;;;9.20;99.90;;;;;;5013827;28;20052;-73
2022/03/22 07:31:02;;;;;;;34.63;26.95;;;9.20;99.90;;;;;;5013446;28;20502;-73
2022/03/22 07:33:28;;;;;;;37.42;27.95;;;9.30;99.90;;;;;;5013462;28;20052;-73
2022/03/22 07:35:54;;;;;;;35.90;26.85;;;9.40;99.90;;;;;;5013409;28;20406;-72
2022/03/22 07:38:20;;;;;;;39.22;27.02;;;9.50;99.90;;;;;;5013341;28;20042;-72
2022/03/22 07:40:45;;;;;;;32.22;25.20;;;9.60;99.90;;;;;;4997398;28;20069;-72
2022/03/22 07:43:12;;;;;;;38.70;26.35;;;9.70;99.90;;;;;;5013947;28;20038;-72
2022/03/22 07:45:37;;;;;;;35.45;26.17;;;9.70;99.90;;;;;;5013344;28;20081;-72
2022/03/22 07:48:04;;;;;;;35.72;25.65;;;9.90;99.90;;;;;;5012929;28;20033;-73
2022/03/22 07:53:15;;;;;;;32.28;24.90;;;10.10;99.90;;;;;;5013033;28;20045;-73
2022/03/22 07:55:42;;;;;;;34.53;25.23;;;10.20;99.90;;;;;;4996676;28;20124;-73
2022/03/22 07:58:09;;;;;;;33.53;25.50;;;10.30;99.90;;;;;;5013663;28;20125;-73
2022/03/22 08:00:38;;;;;;;38.97;24.92;;;10.40;99.90;;;;;;5012951;28;20038;-73
2022/03/22 08:03:05;;;;;;;33.63;25.33;;;10.60;99.90;;;;;;4996631;28;20044;-73
2022/03/22 08:05:34;;;;;;;35.30;23.98;;;10.70;99.90;;;;;;5012868;28;20053;-73
2022/03/22 08:08:01;;;;;;;36.10;24.50;;;10.80;99.90;;;;;;5012795;28;20041;-73
2022/03/22 08:10:26;;;;;;;33.85;24.58;;;10.90;99.90;;;;;;5012792;28;20041;-73
2022/03/22 08:12:53;;;;;;;34.70;24.45;;;11.10;99.90;;;;;;5012786;28;20041;-72
2022/03/22 08:15:19;;;;;;;34.85;24.45;;;11.30;99.90;;;;;;5012983;28;20488;-72
2022/03/22 08:17:45;;;;;;;33.45;24.42;;;11.40;99.90;;;;;;5012660;28;20173;-72
2022/03/22 08:20:12;;;;;;;29.50;24.05;;;11.60;99.90;;;;;;5012643;28;20073;-72
2022/03/22 08:22:52;;;;;;;30.30;23.60;;;11.80;99.80;;;;;;5012627;28;20407;-72
2022/03/22 08:25:23;;;;;;;30.95;23.17;;;12.00;98.40;;;;;;5012614;28;20072;-72
2022/03/22 08:27:50;;;;;;;34.75;24.42;;;12.20;97.00;;;;;;5012542;28;20038;-72
2022/03/22 08:30:20;;;;;;;33.70;23.10;;;12.40;96.90;;;;;;5012831;28;20045;-73
2022/03/22 08:32:46;;;;;;;35.35;24.10;;;12.60;95.20;;;;;;5012890;28;20034;-72
2022/03/22 08:35:12;;;;;;;35.85;23.70;;;12.80;93.50;;;;;;5012425;28;20116;-72
2022/03/22 08:37:38;;;;;;;33.03;21.60;;;13.00;92.40;;;;;;5012849;28;20176;-73
2022/03/22 08:40:04;;;;;;;28.50;21.73;;;13.20;90.20;;;;;;5012573;28;20088;-72
2022/03/22 08:42:30;;;;;;;28.67;22.85;;;13.40;85.90;;;;;;5012796;28;20048;-72
2022/03/22 08:44:55;;;;;;;28.00;22.30;;;13.50;85.30;;;;;;4996383;28;20125;-72
2022/03/22 08:47:21;;;;;;;30.15;23.15;;;13.80;84.60;;;;;;5012475;28;20129;-72
2022/03/22 08:49:48;;;;;;;31.65;23.48;;;13.90;81.70;;;;;;5012671;28;20398;-72
2022/03/22 08:52:14;;;;;;;29.35;22.55;;;14.10;77.50;;;;;;5012342;28;20095;-72
2022/03/22 08:54:40;;;;;;;35.72;23.52;;;14.30;76.90;;;;;;5012231;28;20553;-73
2022/03/22 08:57:06;;;;;;;28.73;22.33;;;14.50;76.20;;;;;;5012119;28;20046;-73
2022/03/22 08:59:31;;;;;;;33.45;23.80;;;14.60;72.50;;;;;;4995762;28;20125;-73
2022/03/22 09:01:58;;;;;;;31.77;23.25;;;14.80;72.10;;;;;;5012485;28;20030;-73
2022/03/22 09:07:08;;;;;;;31.85;23.10;;;15.40;69.10;;;;;;5018586;28;20042;-73
2022/03/22 09:09:34;;;;;;;30.88;23.20;;;15.70;66.10;;;;;;5018675;28;20037;-73
2022/03/22 09:11:59;;;;;;;35.10;23.00;;;16.10;64.10;;;;;;5018577;28;20052;-73
2022/03/22 09:14:28;;;;;;;27.77;23.45;;;16.50;62.00;;;;;;5018613;28;20073;-73
2022/03/22 09:16:53;;;;;;;34.13;23.05;;;17.00;61.10;;;;;;5020004;28;20130;-72
2022/03/22 09:19:19;;;;;;;30.77;22.48;;;17.40;58.20;;;;;;5018548;28;20633;-72
2022/03/22 09:21:45;;;;;;;33.58;23.02;;;17.70;56.20;;;;;;5002212;28;20517;-72
2022/03/22 09:24:11;;;;;;;31.75;22.35;;;18.20;55.40;;;;;;5018525;28;20085;-72
2022/03/22 09:26:37;;;;;;;34.65;23.40;;;18.60;53.80;;;;;;5018309;28;20030;-72
2022/03/22 09:29:03;;;;;;;33.40;23.02;;;18.90;52.20;;;;;;5018405;28;20099;-72
2022/03/22 09:31:29;;;;;;;33.33;22.67;;;19.10;51.40;;;;;;5002129;28;20041;-72
2022/03/22 09:33:56;;;;;;;34.97;22.00;;;19.50;50.50;;;;;;5018606;28;20048;-72
2022/03/22 09:36:22;;;;;;;30.40;22.05;;;19.80;49.80;;;;;;5001897;28;20041;-72
2022/03/22 09:38:48;;;;;;;29.38;21.50;;;20.10;49.50;;;;;;5018600;28;20042;-72
2022/03/22 09:41:15;;;;;;;31.40;22.20;;;20.10;48.60;;;;;;5018238;28;20034;-72
2022/03/22 09:43:49;;;;;;;42.35;22.30;;;19.80;48.50;;;;;;5018598;28;20033;-72
2022/03/22 09:46:18;;;;;;;29.15;21.88;;;19.80;49.00;;;;;;5018066;28;20034;-72
2022/03/22 09:48:45;;;;;;;34.13;21.80;;;19.60;49.40;;;;;;5018294;28;20125;-73
2022/03/22 09:53:55;;;;;;;30.83;22.02;;;19.60;49.40;;;;;;5018181;28;20046;-73
2022/03/22 09:56:21;;;;;;;27.27;21.98;;;19.70;51.00;;;;;;5018142;28;20049;-73
2022/03/22 09:58:48;;;;;;;27.95;21.55;;;19.80;49.90;;;;;;5018291;28;20077;-73
2022/03/22 10:01:13;;;;;;;32.42;22.15;;;19.90;49.70;;;;;;5018077;28;20068;-73
2022/03/22 10:03:39;;;;;;;30.00;21.92;;;20.00;49.00;;;;;;5018468;28;20041;-73
2022/03/22 10:06:07;;;;;;;26.50;20.88;;;20.10;48.90;;;;;;5017946;28;20080;-73
2022/03/22 10:08:36;;;;;;;28.15;22.20;;;20.20;49.40;;;;;;5018309;28;20061;-73
2022/03/22 10:11:02;;;;;;;31.70;22.02;;;20.20;49.40;;;;;;5018294;28;20069;-73
2022/03/22 10:13:28;;;;;;;26.17;20.75;;;20.40;49.70;;;;;;5001659;28;20080;-73
2022/03/22 10:16:04;;;;;;;27.98;22.10;;;20.60;49.70;;;;;;5016990;28;20180;-73
2022/03/22 10:18:34;;;;;;;27.77;20.67;;;20.60;48.70;;;;;;5014388;28;20042;-73
2022/03/22 10:21:02;;;;;;;28.42;22.02;;;20.70;48.90;;;;;;5014862;28;20073;-73
2022/03/22 10:23:30;;;;;;;24.30;20.40;;;20.60;48.70;;;;;;5014857;28;20038;-73
2022/03/22 10:26:07;;;;;;;25.10;20.80;;;20.50;48.90;;;;;;4998464;28;20038;-73
2022/03/22 10:28:35;;;;;;;27.35;21.20;;;20.60;49.20;;;;;;5016577;28;20399;-73
2022/03/22 10:31:00;;;;;;;30.08;22.30;;;20.90;48.60;;;;;;5014919;28;20100;-73
2022/03/22 10:33:26;;;;;;;32.53;21.35;;;21.00;47.90;;;;;;5014652;28;20485;-73
2022/03/22 10:35:52;;;;;;;26.65;21.60;;;21.00;48.10;;;;;;5014564;28;20053;-73
2022/03/22 10:38:22;;;;;;;28.55;21.70;;;21.00;48.10;;;;;;5014729;28;20081;-73
2022/03/22 10:40:49;;;;;;;31.40;21.45;;;21.10;48.10;;;;;;5014696;28;20077;-73
2022/03/22 10:43:20;;;;;;;26.27;21.52;;;21.20;47.80;;;;;;5014768;28;20038;-73
2022/03/22 10:45:52;;;;;;;26.70;21.52;;;21.20;48.30;;;;;;5014432;28;20149;-73
2022/03/22 10:48:19;;;;;;;;;;;21.20;48.80;;;;;;5014819;28;20034;-73
2022/03/22 10:50:49;;;;;;;26.73;20.83;;;21.30;47.70;;;;;;5014692;28;20019;-73
2022/03/22 10:53:17;;;;;;;28.80;21.48;;;21.50;47.70;;;;;;5014396;28;20041;-73
2022/03/22 10:55:44;;;;;;;27.63;20.17;;;21.60;47.00;;;;;;5014556;28;20103;-73
2022/03/22 10:58:15;;;;;;;26.17;19.67;;;21.70;47.30;;;;;;5014171;28;20037;-73
2022/03/22 11:00:45;;;;;;;26.20;20.77;;;21.80;46.80;;;;;;5014413;28;20038;-73
2022/03/22 11:03:13;;;;;;;31.70;22.40;;;21.90;46.00;;;;;;5014547;28;20135;-73
2022/03/22 11:05:41;;;;;;;28.58;22.15;;;22.00;45.80;;;;;;5014513;28;20402;-73
2022/03/22 11:08:07;;;;;;;29.92;21.50;;;22.20;45.00;;;;;;5014134;28;20041;-73
2022/03/22 11:10:33;;;;;;;31.50;23.10;;;22.30;45.80;;;;;;5014080;28;20133;-73
2022/03/22 11:13:00;;;;;;;29.40;21.70;;;22.60;45.50;;;;;;5014340;28;20050;-73
2022/03/22 11:15:49;;;;;;;26.50;19.25;;;22.80;46.50;;;;;;5014430;28;20029;-73
2022/03/22 11:18:18;;;;;;;28.08;20.27;;;23.00;45.10;;;;;;5001925;28;20042;-73
2022/03/22 11:20:51;;;;;;;30.95;21.27;;;23.10;44.40;;;;;;5014032;28;20492;-73
2022/03/22 11:23:23;;;;;;;29.08;21.67;;;23.20;43.40;;;;;;5014114;28;20073;-73
2022/03/22 11:25:49;;;;;;;26.80;20.75;;;23.20;43.50;;;;;;5014159;28;20069;-73
2022/03/22 11:28:19;;;;;;;26.48;21.23;;;23.20;45.00;;;;;;5013571;28;20491;-73
2022/03/22 11:30:47;;;;;;;33.05;22.00;;;23.30;44.30;;;;;;4997896;28;20096;-73
2022/03/22 11:36:12;;;;;;;29.77;22.35;;;23.70;44.20;;;;;;5013853;28;20038;-73
2022/03/22 11:38:48;;;;;;;32.40;22.58;;;23.90;44.10;;;;;;4997424;28;20041;-73
2022/03/22 11:44:42;;;;;;;28.02;21.48;;;24.10;42.60;;;;;;5013612;28;20418;-73
2022/03/22 11:47:07;;;;;;;30.58;23.38;;;24.10;43.90;;;;;;5013184;28;20050;-73
2022/03/22 11:49:54;;;;;;;29.00;21.60;;;24.30;43.20;;;;;;5013484;28;20414;-73
2022/03/22 11:52:22;;;;;;;26.50;20.10;;;24.40;43.10;;;;;;4997295;28;20050;-73
2022/03/22 11:55:08;;;;;;;31.70;21.60;;;24.50;42.30;;;;;;4997388;28;20067;-73
2022/03/22 11:58:08;;;;;;;25.27;21.20;;;24.50;41.20;;;;;;5013127;28;20049;-73
2022/03/22 12:00:45;;;;;;;32.03;22.67;;;24.60;40.70;;;;;;4972302;28;20557;-73
2022/03/22 12:03:15;;;;;;;27.17;20.75;;;24.70;41.00;;;;;;5013178;28;20426;-71
2022/03/22 12:05:41;;;;;;;32.25;21.90;;;24.70;40.90;;;;;;5013046;28;20076;-71
2022/03/22 12:08:14;;;;;;;27.67;22.80;;;24.70;41.30;;;;;;5013134;28;20038;-71
2022/03/22 12:10:45;;;;;;;29.67;22.35;;;24.60;41.10;;;;;;5013053;28;20042;-70
2022/03/22 12:13:10;;;;;;;31.58;21.30;;;24.70;41.00;;;;;;5013021;28;20038;-70
2022/03/22 12:15:36;;;;;;;29.27;21.10;;;24.70;41.10;;;;;;5012906;28;20048;-70
2022/03/22 12:18:02;;;;;;;28.25;20.52;;;24.60;41.00;;;;;;5012848;28;20042;-71
2022/03/22 12:20:27;;;;;;;28.08;21.40;;;24.60;41.40;;;;;;5012986;28;20046;-71
2022/03/22 12:23:00;;;;;;;30.35;20.92;;;24.70;41.10;;;;;;5012789;28;20049;-71
2022/03/22 12:25:27;;;;;;;;;;;24.70;40.40;;;;;;5013164;28;20073;-71
2022/03/22 12:28:01;;;;;;;32.08;20.73;;;24.80;41.30;;;;;;5012683;28;19924;-71
2022/03/22 12:30:30;;;;;;;26.60;20.17;;;25.00;40.10;;;;;;5012653;28;20510;-71
2022/03/22 12:32:58;;;;;;;29.25;20.52;;;25.10;39.70;;;;;;5012867;28;20045;-71
2022/03/22 12:35:24;;;;;;;29.45;20.85;;;25.20;39.70;;;;;;5012489;28;20073;-71
2022/03/22 12:37:52;;;;;;;27.42;20.73;;;25.10;39.80;;;;;;5012495;28;20041;-71
2022/03/22 12:40:19;;;;;;;28.15;20.70;;;25.10;39.50;;;;;;4995293;28;20040;-71
2022/03/22 12:42:45;;;;;;;31.23;21.85;;;25.00;39.70;;;;;;5012392;28;20117;-71
2022/03/22 12:45:11;;;;;;;25.38;20.83;;;25.00;39.80;;;;;;5012385;28;20069;-71
2022/03/22 12:47:42;;;;;;;29.02;21.50;;;25.00;39.80;;;;;;5012498;28;20038;-71
2022/03/22 12:50:09;;;;;;;27.65;21.20;;;25.00;39.70;;;;;;5012606;28;20053;-71
2022/03/22 12:52:36;;;;;;;31.55;21.67;;;25.00;39.70;;;;;;5012559;28;20045;-71
2022/03/22 12:55:03;;;;;;;27.35;20.70;;;24.90;39.60;;;;;;5012243;28;20053;-71
2022/03/22 12:57:29;;;;;;;29.08;20.60;;;24.90;39.40;;;;;;5012496;28;20502;-71
2022/03/22 12:59:56;;;;;;;28.25;20.20;;;25.00;39.20;;;;;;5012074;28;20084;-71
2022/03/22 13:02:22;;;;;;;27.58;19.98;;;25.00;39.50;;;;;;5012224;28;20080;-71
2022/03/22 13:04:50;;;;;;;30.08;21.42;;;25.00;39.70;;;;;;5012121;28;20513;-71
2022/03/22 13:07:19;;;;;;;26.67;20.67;;;25.10;39.10;;;;;;5012003;28;20478;-71
2022/03/22 13:12:33;;;;;;;30.92;19.92;;;24.60;38.60;;;;;;5012046;28;20050;-71